Time;durP1;ratioP1;P1;durP2;ratioP2;P2;SDS_P1;SDS_P2;PMS_P1;PMS_P2;Temp;Humidity;BMP_temperature;BMP_pressure;BME280_temperature;BME280_humidity;BME280_pressure;Samples;Min_cycle;Max_cycle;Signal;HPM_P1;HPM_P2
2023/06/30 04:22:33;;;;;;;8.13;5.95;;;;;;;18.11;100.00;99705.56;5089473;28;20919;-66
2023/06/30 04:24:59;;;;;;;10.10;6.13;;;;;;;18.05;100.00;99700.31;5089603;28;20040;-65
2023/06/30 04:27:24;;;;;;;11.27;6.72;;;;;;;17.99;100.00;99698.53;5089466;28;20040;-65
2023/06/30 04:29:49;;;;;;;10.70;7.20;;;;;;;18.05;100.00;99708.38;5089093;28;20460;-65
2023/06/30 04:32:15;;;;;;;7.97;6.30;;;;;;;18.11;100.00;99700.19;5089354;28;20036;-66
2023/06/30 04:34:40;;;;;;;8.40;6.10;;;;;;;18.18;100.00;99694.66;5089244;28;20502;-64
2023/06/30 04:37:06;;;;;;;8.27;6.50;;;;;;;18.17;100.00;99701.94;5089191;28;20115;-64
2023/06/30 04:39:31;;;;;;;10.80;6.97;;;;;;;18.12;100.00;99703.69;5088937;28;20461;-64
2023/06/30 04:41:56;;;;;;;9.07;6.10;;;;;;;18.18;100.00;99695.50;5089246;28;20708;-64
2023/06/30 04:44:22;;;;;;;8.98;6.78;;;;;;;18.26;100.00;99698.91;5089122;28;20040;-64
2023/06/30 04:46:47;;;;;;;9.20;6.90;;;;;;;18.26;100.00;99699.72;5089089;28;20047;-65
2023/06/30 04:49:12;;;;;;;10.27;7.18;;;;;;;18.28;100.00;99696.78;5088738;28;20044;-64
2023/06/30 04:51:38;;;;;;;12.25;8.82;;;;;;;18.30;100.00;99697.34;5089002;28;20063;-64
2023/06/30 04:54:03;;;;;;;9.93;8.15;;;;;;;18.33;100.00;99691.50;5088997;28;20405;-64
2023/06/30 04:56:29;;;;;;;11.95;8.45;;;;;;;18.34;100.00;99693.16;5088855;28;20058;-64
2023/06/30 04:58:55;;;;;;;9.13;7.05;;;;;;;18.35;100.00;99689.38;5088548;28;20400;-65
2023/06/30 05:01:20;;;;;;;8.70;6.65;;;;;;;18.37;100.00;99681.88;5088630;28;20044;-64
2023/06/30 05:03:45;;;;;;;8.85;6.47;;;;;;;18.46;100.00;99690.44;5088743;28;20043;-64
2023/06/30 05:06:11;;;;;;;9.40;6.65;;;;;;;18.42;100.00;99695.47;5089022;28;20044;-64
2023/06/30 05:08:36;;;;;;;8.68;7.07;;;;;;;18.40;100.00;99690.31;5088223;28;20075;-64
2023/06/30 05:11:02;;;;;;;8.20;6.35;;;;;;;18.39;100.00;99693.25;5088653;28;20087;-64
2023/06/30 05:13:27;;;;;;;9.57;8.07;;;;;;;18.43;100.00;99689.81;5088648;28;20043;-66
2023/06/30 05:15:53;;;;;;;9.70;6.72;;;;;;;18.41;100.00;99683.84;5088376;28;20036;-64
2023/06/30 05:18:18;;;;;;;9.93;6.05;;;;;;;18.45;100.00;99689.59;5088279;28;20040;-67
2023/06/30 05:20:44;;;;;;;8.25;6.57;;;;;;;18.46;100.00;99693.94;5088266;28;20044;-66
2023/06/30 05:23:09;;;;;;;8.70;6.35;;;;;;;18.46;100.00;99685.84;5088479;28;20111;-67
2023/06/30 05:25:34;;;;;;;12.40;7.63;;;;;;;18.50;100.00;99692.38;5088247;28;20048;-66
2023/06/30 05:28:00;;;;;;;12.23;7.30;;;;;;;18.54;100.00;99688.16;5088395;28;20052;-65
2023/06/30 05:30:25;;;;;;;11.05;7.60;;;;;;;18.58;100.00;99691.19;5087896;28;20032;-54
2023/06/30 05:32:50;;;;;;;10.82;7.47;;;;;;;18.63;100.00;99694.00;5080653;28;20055;-53
2023/06/30 05:35:16;;;;;;;11.38;7.13;;;;;;;18.65;100.00;99698.13;5073208;28;20132;-52
2023/06/30 05:37:41;;;;;;;11.70;8.40;;;;;;;18.69;100.00;99684.97;5074286;28;20038;-53
2023/06/30 05:40:07;;;;;;;12.40;8.05;;;;;;;18.75;100.00;99691.31;5073860;28;20040;-57
2023/06/30 05:42:32;;;;;;;11.45;7.88;;;;;;;18.81;100.00;99693.03;5074483;28;20040;-53
2023/06/30 05:44:58;;;;;;;10.38;7.80;;;;;;;18.86;100.00;99699.38;5074524;28;20040;-54
2023/06/30 05:47:23;;;;;;;10.20;7.13;;;;;;;18.85;100.00;99705.81;5074338;28;20036;-52
2023/06/30 05:49:49;;;;;;;8.55;7.18;;;;;;;18.94;100.00;99703.56;5074059;28;20036;-52
2023/06/30 05:52:14;;;;;;;8.85;6.97;;;;;;;19.00;100.00;99704.47;5074305;28;20119;-52
2023/06/30 05:54:41;;;;;;;10.38;7.57;;;;;;;19.02;100.00;99707.72;5074322;28;20040;-52
2023/06/30 05:57:06;;;;;;;10.82;7.20;;;;;;;19.08;100.00;99714.88;5074220;28;20511;-51
2023/06/30 05:59:32;;;;;;;11.35;8.15;;;;;;;19.11;100.00;99714.41;5073919;28;20120;-54
2023/06/30 06:01:57;;;;;;;10.88;7.70;;;;;;;19.13;100.00;99715.78;5074231;28;20038;-52
2023/06/30 06:04:23;;;;;;;11.60;8.93;;;;;;;19.21;100.00;99734.28;5074166;28;20044;-51
2023/06/30 06:06:49;;;;;;;10.75;7.78;;;;;;;19.31;100.00;99741.78;5074073;28;20044;-52
2023/06/30 06:09:14;;;;;;;12.50;8.10;;;;;;;19.32;100.00;99748.81;5073816;28;20037;-51
2023/06/30 06:11:40;;;;;;;12.27;8.43;;;;;;;19.36;100.00;99751.81;5073965;28;20075;-56
2023/06/30 06:14:05;;;;;;;11.55;8.38;;;;;;;19.36;100.00;99757.22;5073975;28;20064;-53
2023/06/30 06:16:31;;;;;;;12.13;8.60;;;;;;;19.44;100.00;99756.84;5073801;28;20450;-51
2023/06/30 06:18:56;;;;;;;11.00;8.15;;;;;;;19.49;100.00;99762.31;5073608;28;20481;-52
2023/06/30 06:21:26;;;;;;;13.63;8.88;;;;;;;19.56;100.00;99764.88;5073740;28;20048;-53
2023/06/30 06:23:52;;;;;;;10.48;7.97;;;;;;;19.64;100.00;99776.16;5073879;28;20507;-54
2023/06/30 06:26:17;;;;;;;12.45;8.07;;;;;;;19.69;100.00;99772.69;5073639;28;20082;-51
2023/06/30 06:28:43;;;;;;;10.57;8.50;;;;;;;19.68;100.00;99785.38;5073285;28;20036;-52
2023/06/30 06:31:09;;;;;;;9.60;7.82;;;;;;;19.74;100.00;99787.09;5073517;28;20102;-53
2023/06/30 06:33:35;;;;;;;11.20;7.97;;;;;;;19.78;100.00;99793.69;5073663;28;20070;-52
2023/06/30 06:36:00;;;;;;;12.60;8.60;;;;;;;19.77;100.00;99794.75;5073535;28;20044;-54
2023/06/30 06:38:26;;;;;;;11.82;8.40;;;;;;;19.82;100.00;99804.78;5073264;28;20044;-52
2023/06/30 06:40:51;;;;;;;13.55;8.10;;;;;;;19.85;100.00;99801.63;5073430;28;20108;-52
2023/06/30 06:43:17;;;;;;;15.20;9.05;;;;;;;19.87;100.00;99801.38;5073227;28;20400;-55
2023/06/30 06:45:42;;;;;;;11.95;8.38;;;;;;;19.88;100.00;99805.72;5072311;28;20052;-54
2023/06/30 06:48:22;;;;;;;11.57;8.23;;;;;;;19.91;100.00;99814.16;5073293;28;20039;-54
2023/06/30 06:50:57;;;;;;;10.73;7.57;;;;;;;19.87;100.00;99814.88;5073060;28;20040;-55
2023/06/30 06:53:30;;;;;;;12.57;9.05;;;;;;;19.93;100.00;99814.72;5073169;28;20036;-53
2023/06/30 06:55:56;;;;;;;12.90;9.13;;;;;;;19.95;100.00;99817.19;5072994;28;20505;-54
2023/06/30 06:58:24;;;;;;;10.73;8.23;;;;;;;19.91;100.00;99810.63;5072864;28;20036;-52
2023/06/30 07:00:51;;;;;;;12.45;8.68;;;;;;;19.98;100.00;99817.53;5072843;28;20375;-55
2023/06/30 07:03:17;;;;;;;13.45;8.60;;;;;;;19.97;100.00;99820.47;5073011;28;20481;-51
2023/06/30 07:05:46;;;;;;;12.85;8.48;;;;;;;20.03;100.00;99816.78;5072834;28;20039;-52
2023/06/30 07:08:12;;;;;;;10.85;8.27;;;;;;;20.07;100.00;99812.50;5072786;28;20036;-55
2023/06/30 07:10:38;;;;;;;11.80;8.77;;;;;;;20.09;100.00;99810.41;5072578;28;20043;-56
2023/06/30 07:13:04;;;;;;;11.55;8.43;;;;;;;20.18;100.00;99808.91;5072721;28;20115;-56
2023/06/30 07:15:30;;;;;;;12.07;8.30;;;;;;;20.21;100.00;99811.13;5072696;28;20460;-57
2023/06/30 07:17:58;;;;;;;10.25;8.20;;;;;;;20.33;100.00;99822.66;5072645;28;20040;-56
2023/06/30 07:20:24;;;;;;;10.75;7.65;;;;;;;20.38;100.00;99821.94;5072229;28;20036;-55
2023/06/30 07:22:51;;;;;;;12.38;8.27;;;;;;;20.48;100.00;99830.25;5072537;28;20037;-51
2023/06/30 07:25:16;;;;;;;11.20;7.83;;;;;;;20.49;100.00;99836.47;5072571;28;20079;-51
2023/06/30 07:28:08;;;;;;;12.90;8.45;;;;;;;20.53;100.00;99834.88;5068993;28;20072;-53
2023/06/30 07:30:33;;;;;;;11.77;8.52;;;;;;;20.55;100.00;99838.19;5059163;28;20053;-56
2023/06/30 07:32:59;;;;;;;11.02;8.07;;;;;;;20.57;100.00;99830.63;5072248;28;20036;-52
2023/06/30 07:35:24;;;;;;;12.32;7.57;;;;;;;20.57;100.00;99836.84;5072095;28;20509;-53
2023/06/30 07:37:50;;;;;;;12.35;8.20;;;;;;;20.63;100.00;99828.81;5072267;28;20124;-54
2023/06/30 07:40:17;;;;;;;8.68;6.47;;;;;;;20.66;100.00;99831.81;5071934;28;20028;-58
2023/06/30 07:42:43;;;;;;;13.05;8.07;;;;;;;20.73;100.00;99843.28;5071149;28;20173;-56
2023/06/30 07:45:11;;;;;;;11.23;8.10;;;;;;;20.69;100.00;99838.66;5072230;28;20078;-52
2023/06/30 07:47:37;;;;;;;12.93;8.18;;;;;;;20.70;100.00;99841.09;5072091;28;20115;-54
2023/06/30 07:50:11;;;;;;;10.80;7.93;;;;;;;20.69;100.00;99834.03;5071770;28;20040;-59
2023/06/30 07:52:45;;;;;;;9.98;7.50;;;;;;;20.66;100.00;99837.25;5072268;28;20413;-62
2023/06/30 07:55:18;;;;;;;11.15;7.60;;;;;;;20.69;100.00;99842.16;5070652;28;20425;-60
2023/06/30 07:57:45;;;;;;;10.23;7.22;;;;;;;20.70;100.00;99841.09;5070959;28;20569;-61
2023/06/30 08:00:15;;;;;;;9.70;7.53;;;;;;;20.73;100.00;99846.00;5070982;28;20070;-56
2023/06/30 08:02:41;;;;;;;12.35;7.68;;;;;;;20.72;100.00;99844.34;5072965;28;20119;-59
2023/06/30 08:05:07;;;;;;;11.00;7.70;;;;;;;20.70;100.00;99840.28;5054954;28;20036;-61
2023/06/30 08:07:33;;;;;;;13.43;8.00;;;;;;;20.67;100.00;99844.31;5071340;28;20443;-56
2023/06/30 08:09:59;;;;;;;13.93;7.90;;;;;;;20.64;100.00;99844.78;5071717;28;20036;-57
2023/06/30 08:12:24;;;;;;;13.63;8.45;;;;;;;20.63;100.00;99850.47;5072031;28;20040;-60
2023/06/30 08:14:50;;;;;;;11.48;7.80;;;;;;;20.65;100.00;99849.13;5071999;28;20527;-59
2023/06/30 08:17:15;;;;;;;13.95;8.32;;;;;;;20.59;100.00;99850.13;5072158;28;20040;-60
2023/06/30 08:19:42;;;;;;;16.85;9.13;;;;;;;20.51;100.00;99853.25;5071889;28;20097;-60
2023/06/30 08:22:13;;;;;;;16.17;9.40;;;;;;;20.51;100.00;99858.66;5071786;28;20029;-60
2023/06/30 08:24:43;;;;;;;15.23;9.00;;;;;;;20.43;100.00;99856.34;5071959;28;20036;-59
2023/06/30 08:27:08;;;;;;;14.50;9.63;;;;;;;20.38;100.00;99861.69;5071674;28;20025;-60
2023/06/30 08:29:34;;;;;;;14.02;8.70;;;;;;;20.38;100.00;99856.28;5071572;28;20037;-60
2023/06/30 08:31:59;;;;;;;16.58;9.48;;;;;;;20.40;100.00;99856.84;5071691;28;20094;-59
2023/06/30 08:34:26;;;;;;;15.10;8.70;;;;;;;20.27;100.00;99850.69;5071725;28;20131;-60
2023/06/30 08:36:55;;;;;;;13.05;8.65;;;;;;;20.28;100.00;99857.75;5071565;28;20501;-60
2023/06/30 08:39:22;;;;;;;17.25;8.75;;;;;;;20.24;100.00;99855.78;5071322;28;20036;-61
2023/06/30 08:41:52;;;;;;;13.25;9.35;;;;;;;20.20;100.00;99860.03;5071393;28;20054;-60
2023/06/30 08:44:30;;;;;;;18.27;9.23;;;;;;;20.19;100.00;99853.00;5071525;28;20512;-58
2023/06/30 08:46:58;;;;;;;15.68;8.68;;;;;;;20.21;100.00;99853.56;5071453;28;20546;-59
2023/06/30 08:49:24;;;;;;;18.27;9.95;;;;;;;20.22;100.00;99856.03;5071274;28;20043;-57
2023/06/30 08:51:59;;;;;;;16.60;9.52;;;;;;;20.12;100.00;99846.94;5071394;28;20032;-59
2023/06/30 08:54:28;;;;;;;15.80;8.98;;;;;;;20.23;100.00;99851.44;5071541;28;20068;-58
2023/06/30 08:56:54;;;;;;;14.80;8.55;;;;;;;20.22;100.00;99845.22;5071343;28;20032;-60
2023/06/30 08:59:20;;;;;;;16.70;9.50;;;;;;;20.20;100.00;99847.34;5071246;28;20136;-57
2023/06/30 09:01:46;;;;;;;18.55;9.82;;;;;;;20.21;100.00;99849.00;5071467;28;20037;-58
2023/06/30 09:04:12;;;;;;;15.90;9.25;;;;;;;20.27;100.00;99847.97;5071442;28;20049;-58
2023/06/30 09:06:43;;;;;;;14.35;8.80;;;;;;;20.39;100.00;99845.19;5071254;28;20046;-60
2023/06/30 09:09:11;;;;;;;15.82;9.52;;;;;;;20.41;100.00;99842.25;5074310;28;20511;-56
2023/06/30 09:11:38;;;;;;;16.83;9.38;;;;;;;20.45;100.00;99846.13;5074906;28;20086;-60
2023/06/30 09:14:04;;;;;;;18.65;9.77;;;;;;;20.50;100.00;99851.63;5075037;28;20040;-58
2023/06/30 09:16:31;;;;;;;16.85;9.55;;;;;;;20.50;100.00;99847.03;5074889;28;20029;-58
2023/06/30 09:18:57;;;;;;;14.27;8.77;;;;;;;20.56;100.00;99850.63;5074779;28;20047;-58
2023/06/30 09:21:22;;;;;;;14.75;8.77;;;;;;;20.62;100.00;99841.53;5074838;28;20036;-59
2023/06/30 09:23:49;;;;;;;17.58;9.32;;;;;;;20.57;100.00;99836.03;5074795;28;20043;-56
2023/06/30 09:26:16;;;;;;;15.45;8.93;;;;;;;20.58;100.00;99849.31;5074687;28;20032;-59
2023/06/30 09:28:45;;;;;;;15.35;8.98;;;;;;;20.48;100.00;99848.34;5074560;28;20036;-58
2023/06/30 09:31:12;;;;;;;14.73;8.90;;;;;;;20.39;100.00;99839.78;5074704;28;20406;-59
2023/06/30 09:33:42;;;;;;;16.33;8.93;;;;;;;20.42;100.00;99843.91;5074731;28;20558;-59
2023/06/30 09:36:08;;;;;;;16.25;9.55;;;;;;;20.40;100.00;99835.19;5074506;28;20032;-58
2023/06/30 09:38:34;;;;;;;20.48;9.45;;;;;;;20.40;100.00;99840.59;5074319;28;20036;-61
2023/06/30 09:41:03;;;;;;;17.88;10.10;;;;;;;20.37;100.00;99836.53;5074526;28;20036;-60
2023/06/30 09:43:29;;;;;;;14.57;8.50;;;;;;;20.40;100.00;99836.00;5074569;28;20040;-60
2023/06/30 09:46:01;;;;;;;18.67;8.63;;;;;;;20.43;100.00;99842.84;5074435;28;20486;-59
2023/06/30 09:48:30;;;;;;;13.88;8.60;;;;;;;20.43;100.00;99840.94;5074201;28;20036;-59
2023/06/30 09:50:56;;;;;;;17.67;9.57;;;;;;;20.52;100.00;99833.25;5074329;28;20037;-60
2023/06/30 09:53:21;;;;;;;14.52;8.35;;;;;;;20.62;100.00;99836.13;5074414;28;20081;-61
2023/06/30 09:55:51;;;;;;;17.30;10.10;;;;;;;20.71;100.00;99831.91;5074226;28;20064;-58
2023/06/30 09:58:18;;;;;;;15.90;9.20;;;;;;;20.79;100.00;99836.06;5074036;28;20033;-60
2023/06/30 10:00:44;;;;;;;18.45;9.68;;;;;;;20.89;100.00;99824.56;5074239;28;20036;-59
2023/06/30 10:03:09;;;;;;;13.30;8.20;;;;;;;20.85;100.00;99843.19;5074349;28;20051;-59
2023/06/30 10:05:38;;;;;;;15.13;8.98;;;;;;;20.82;100.00;99844.50;5074561;28;20037;-59
2023/06/30 10:08:04;;;;;;;14.68;9.02;;;;;;;20.93;100.00;99836.50;5094492;28;20075;-57
2023/06/30 10:10:30;;;;;;;15.57;9.13;;;;;;;20.92;100.00;99833.00;5093537;28;20059;-57
2023/06/30 10:12:58;;;;;;;14.60;8.68;;;;;;;20.98;100.00;99836.59;5094314;28;20104;-57
2023/06/30 10:15:24;;;;;;;15.63;8.90;;;;;;;21.00;100.00;99837.16;5094624;28;20044;-58
2023/06/30 10:17:51;;;;;;;15.93;9.27;;;;;;;21.03;100.00;99823.94;5094160;28;20209;-58
2023/06/30 10:20:18;;;;;;;16.10;8.93;;;;;;;21.21;100.00;99840.94;5093803;28;20123;-57
2023/06/30 10:22:44;;;;;;;19.25;10.07;;;;;;;21.42;99.35;99847.44;5094186;28;20104;-58
2023/06/30 10:25:10;;;;;;;17.83;10.32;;;;;;;21.45;95.65;99836.09;5093942;28;20089;-58
2023/06/30 10:27:37;;;;;;;16.77;9.75;;;;;;;21.46;96.01;99843.16;5094076;28;20115;-58
2023/06/30 10:30:03;;;;;;;17.13;9.00;;;;;;;21.62;97.32;99842.22;5093659;28;20485;-59
2023/06/30 10:32:28;;;;;;;15.45;9.23;;;;;;;21.74;94.92;99829.34;5093757;28;20071;-64
2023/06/30 10:34:54;;;;;;;15.18;9.27;;;;;;;21.95;94.32;99839.28;5094073;28;20039;-57
2023/06/30 10:37:20;;;;;;;17.60;9.75;;;;;;;21.96;93.43;99834.69;5093870;28;20043;-58
2023/06/30 10:39:46;;;;;;;13.48;8.63;;;;;;;22.08;91.14;99839.94;5093550;28;20047;-58
2023/06/30 10:42:12;;;;;;;16.17;9.68;;;;;;;22.14;92.47;99828.91;5093819;28;20028;-57
2023/06/30 10:44:38;;;;;;;15.07;8.73;;;;;;;22.13;91.77;99826.47;5093697;28;20404;-59
2023/06/30 10:47:04;;;;;;;13.75;8.50;;;;;;;22.29;92.56;99830.09;5093487;28;20074;-57
2023/06/30 10:49:34;;;;;;;14.77;8.65;;;;;;;22.16;90.76;99820.50;5093368;28;20036;-55
2023/06/30 10:52:06;;;;;;;12.88;7.85;;;;;;;22.18;91.94;99812.94;5093492;28;20085;-58
2023/06/30 10:54:41;;;;;;;14.85;8.63;;;;;;;22.42;92.00;99825.03;5093537;28;20043;-56
2023/06/30 10:57:18;;;;;;;14.98;8.52;;;;;;;22.64;89.04;99818.69;5093352;28;20040;-57
2023/06/30 10:59:48;;;;;;;15.23;8.60;;;;;;;22.72;87.12;99818.19;5093241;28;20039;-59
2023/06/30 11:02:16;;;;;;;13.20;8.10;;;;;;;23.06;87.08;99809.66;5093346;28;20036;-58
2023/06/30 11:04:43;;;;;;;14.85;8.55;;;;;;;23.21;84.27;99809.72;5093344;28;20028;-60
2023/06/30 11:07:10;;;;;;;16.25;9.27;;;;;;;23.41;85.52;99798.94;5093232;28;20040;-59
2023/06/30 11:09:48;;;;;;;13.05;8.48;;;;;;;23.64;82.25;99796.81;5092910;28;20484;-60
2023/06/30 11:12:27;;;;;;;12.50;8.07;;;;;;;23.82;80.97;99796.28;5092983;28;20089;-58
2023/06/30 11:14:58;;;;;;;13.10;8.43;;;;;;;23.98;84.17;99795.19;5093224;28;20666;-59
2023/06/30 11:17:25;;;;;;;15.65;8.32;;;;;;;24.10;79.99;99801.16;5093017;28;20092;-58
2023/06/30 11:20:11;;;;;;;13.48;8.32;;;;;;;24.13;79.35;99809.91;5092779;28;20040;-58
2023/06/30 11:22:37;;;;;;;13.00;8.25;;;;;;;23.96;79.15;99813.69;5092953;28;20110;-58
2023/06/30 11:25:04;;;;;;;15.70;9.40;;;;;;;23.89;79.88;99809.63;5092886;28;20034;-58
2023/06/30 11:27:30;;;;;;;;;;;;;;;23.88;81.60;99824.31;5093247;28;20074;-60
2023/06/30 11:29:56;;;;;;;11.75;7.80;;;;;;;23.70;79.83;99817.47;5092095;28;20006;-60
2023/06/30 11:32:29;;;;;;;13.97;8.77;;;;;;;23.89;78.31;99809.63;5092566;28;20083;-59
2023/06/30 11:34:56;;;;;;;11.68;8.57;;;;;;;23.88;79.35;99803.34;5092640;28;20032;-59
2023/06/30 11:37:22;;;;;;;11.80;7.85;;;;;;;23.83;78.18;99801.44;5092693;28;20055;-59
2023/06/30 11:39:52;;;;;;;14.00;8.85;;;;;;;24.04;78.17;99798.72;5092403;28;20027;-58
2023/06/30 11:42:21;;;;;;;13.18;7.95;;;;;;;24.17;79.25;99791.91;5092584;28;20079;-57
2023/06/30 11:44:49;;;;;;;13.98;8.60;;;;;;;24.14;82.32;99792.47;5092543;28;20503;-58
2023/06/30 11:47:14;;;;;;;;;;;;;;;24.27;77.52;99800.09;5092790;28;20055;-59
2023/06/30 11:49:40;;;;;;;14.52;8.38;;;;;;;24.53;77.74;99811.78;5092387;28;19935;-58
2023/06/30 11:52:05;;;;;;;11.93;8.23;;;;;;;24.76;76.39;99821.22;5092429;28;20063;-60
2023/06/30 11:54:36;;;;;;;9.50;5.97;;;;;;;24.37;71.22;99827.28;5092375;28;20040;-60
2023/06/30 11:57:03;;;;;;;8.98;5.45;;;;;;;24.03;72.70;99838.72;5085047;28;20077;-60
2023/06/30 11:59:29;;;;;;;;;;;;;;;23.63;73.94;99841.41;5072294;28;20042;-60
2023/06/30 12:01:55;;;;;;;7.10;4.55;;;;;;;22.65;78.31;99831.97;5072106;28;20407;-56
2023/06/30 12:04:20;;;;;;;6.63;4.85;;;;;;;22.46;81.09;99838.91;5070897;28;20040;-59
2023/06/30 12:06:46;;;;;;;6.05;4.22;;;;;;;22.45;82.01;99834.56;5072226;28;20032;-59
2023/06/30 12:09:11;;;;;;;6.40;4.63;;;;;;;21.92;85.26;99826.28;5071800;28;20056;-61
2023/06/30 12:11:40;;;;;;;6.68;4.95;;;;;;;21.43;87.69;99843.66;5063499;28;20041;-62
2023/06/30 12:14:14;;;;;;;7.50;4.88;;;;;;;21.20;88.72;99847.44;5060484;28;20036;-59
2023/06/30 12:16:44;;;;;;;7.03;4.70;;;;;;;21.13;89.95;99848.44;5060117;28;20043;-60
2023/06/30 12:19:10;;;;;;;9.60;5.82;;;;;;;20.74;92.42;99847.66;5061022;28;20032;-60
2023/06/30 12:22:09;;;;;;;7.43;4.65;;;;;;;20.70;94.34;99848.41;5061938;28;20029;-58
2023/06/30 12:24:35;;;;;;;8.38;5.18;;;;;;;20.68;95.03;99848.66;5061981;28;20140;-59
2023/06/30 12:27:05;;;;;;;10.57;5.32;;;;;;;20.23;99.03;99852.25;5060011;28;20061;-60
2023/06/30 12:29:33;;;;;;;9.73;6.00;;;;;;;20.11;100.00;99862.34;5057959;28;20040;-60
2023/06/30 12:31:59;;;;;;;10.05;5.82;;;;;;;20.00;100.00;99866.75;5056696;28;20028;-60
2023/06/30 12:34:31;;;;;;;8.77;6.20;;;;;;;19.89;100.00;99877.63;5062108;28;20497;-60
2023/06/30 12:36:57;;;;;;;10.27;5.85;;;;;;;19.68;100.00;99877.25;5061665;28;20029;-60
2023/06/30 12:39:23;;;;;;;10.35;6.32;;;;;;;19.55;100.00;99874.81;5059231;28;20405;-59
2023/06/30 12:41:48;;;;;;;10.55;6.47;;;;;;;19.43;100.00;99858.66;5061809;28;20043;-60
2023/06/30 12:44:14;;;;;;;13.77;6.60;;;;;;;19.46;100.00;99847.34;5064234;28;20231;-60
2023/06/30 12:46:41;;;;;;;10.57;6.18;;;;;;;19.42;100.00;99831.88;5064439;28;20036;-65
2023/06/30 12:49:06;;;;;;;11.40;7.13;;;;;;;19.50;100.00;99839.63;5063916;28;20505;-60
2023/06/30 12:51:32;;;;;;;9.52;5.90;;;;;;;19.38;100.00;99839.66;5065381;28;20033;-59
2023/06/30 12:53:58;;;;;;;11.07;6.18;;;;;;;19.30;100.00;99850.84;5065622;28;20033;-59
2023/06/30 12:56:24;;;;;;;9.23;5.95;;;;;;;19.32;100.00;99847.91;5063933;28;20044;-61
2023/06/30 12:58:50;;;;;;;13.35;6.57;;;;;;;18.90;100.00;99848.09;5064340;28;20393;-60
2023/06/30 13:01:15;;;;;;;9.02;5.97;;;;;;;19.03;100.00;99852.41;5062298;28;20025;-61
2023/06/30 13:03:41;;;;;;;9.80;5.35;;;;;;;19.00;100.00;99861.81;5064179;28;20393;-61
2023/06/30 13:06:07;;;;;;;11.23;5.00;;;;;;;19.13;100.00;99860.75;5050664;28;20033;-61
2023/06/30 13:08:32;;;;;;;9.32;5.35;;;;;;;19.20;100.00;99854.13;5064120;28;20025;-61
2023/06/30 13:10:57;;;;;;;7.72;5.07;;;;;;;19.15;100.00;99848.63;5064352;28;20078;-62
2023/06/30 13:13:23;;;;;;;8.23;5.25;;;;;;;19.21;100.00;99846.84;5060550;28;20039;-62
2023/06/30 13:15:48;;;;;;;9.45;5.18;;;;;;;19.30;100.00;99850.84;5065619;28;20468;-61
2023/06/30 13:18:14;;;;;;;10.30;4.93;;;;;;;19.07;100.00;99848.19;5063591;28;20037;-61
2023/06/30 13:20:39;;;;;;;8.00;4.75;;;;;;;19.04;100.00;99849.50;5064863;28;20032;-61
2023/06/30 13:23:05;;;;;;;9.13;5.50;;;;;;;18.82;100.00;99843.88;5065846;28;20044;-61
2023/06/30 13:25:30;;;;;;;9.52;5.68;;;;;;;19.04;100.00;99849.50;5062000;28;20075;-61
2023/06/30 13:27:56;;;;;;;11.02;5.45;;;;;;;19.17;100.00;99840.28;5064226;28;20474;-62
2023/06/30 13:30:21;;;;;;;9.80;5.32;;;;;;;19.16;100.00;99844.88;5064075;28;20549;-61
2023/06/30 13:32:47;;;;;;;11.48;6.22;;;;;;;19.15;100.00;99839.72;5071857;28;20041;-61
2023/06/30 13:35:12;;;;;;;11.75;5.38;;;;;;;19.10;100.00;99834.22;5074585;28;20040;-62
2023/06/30 13:37:37;;;;;;;8.93;5.47;;;;;;;19.28;100.00;99838.63;5074661;28;20052;-61
2023/06/30 13:40:04;;;;;;;9.80;5.65;;;;;;;19.31;100.00;99832.75;5074294;28;20037;-61
2023/06/30 13:42:30;;;;;;;10.15;5.90;;;;;;;19.38;100.00;99822.63;5074496;28;20028;-60
2023/06/30 13:44:55;;;;;;;9.52;5.13;;;;;;;19.39;100.00;99825.09;5074572;28;20052;-59
2023/06/30 13:47:21;;;;;;;9.13;5.57;;;;;;;19.34;100.00;99833.09;5074338;28;20028;-62
2023/06/30 13:49:46;;;;;;;8.50;5.55;;;;;;;19.40;100.00;99820.50;5074106;28;20032;-62
2023/06/30 13:52:11;;;;;;;10.10;5.72;;;;;;;19.58;100.00;99820.34;5074350;28;20127;-60
2023/06/30 13:54:38;;;;;;;10.18;5.60;;;;;;;19.65;100.00;99821.00;5073825;28;20037;-62
2023/06/30 13:57:03;;;;;;;10.52;6.00;;;;;;;19.54;100.00;99827.25;5074271;28;20038;-62
2023/06/30 13:59:29;;;;;;;11.75;6.40;;;;;;;19.73;100.00;99820.59;5074004;28;20036;-61
2023/06/30 14:01:54;;;;;;;9.50;6.32;;;;;;;19.79;100.00;99824.22;5074180;28;20127;-62
2023/06/30 14:04:20;;;;;;;10.43;6.45;;;;;;;19.88;100.00;99814.63;5074127;28;20036;-62
2023/06/30 14:06:45;;;;;;;10.27;5.65;;;;;;;19.93;100.00;99819.31;5074216;28;20043;-60
2023/06/30 14:09:11;;;;;;;9.50;5.80;;;;;;;20.07;100.00;99815.22;5073697;28;20044;-61
2023/06/30 14:11:40;;;;;;;11.65;6.40;;;;;;;20.11;100.00;99810.16;5073977;28;20135;-60
2023/06/30 14:14:06;;;;;;;9.43;6.07;;;;;;;20.32;100.00;99810.22;5074011;28;20067;-60
2023/06/30 14:16:32;;;;;;;9.63;5.68;;;;;;;20.42;100.00;99804.16;5073916;28;20036;-61
2023/06/30 14:18:59;;;;;;;10.60;6.07;;;;;;;20.33;100.00;99803.72;5073911;28;20393;-61
2023/06/30 14:21:25;;;;;;;14.68;7.15;;;;;;;20.57;100.00;99798.16;5073911;28;20428;-61
2023/06/30 14:23:51;;;;;;;12.93;6.65;;;;;;;20.36;100.00;99796.22;5073755;28;20597;-61
2023/06/30 14:26:17;;;;;;;14.32;7.25;;;;;;;20.39;100.00;99782.19;5073627;28;20041;-60
2023/06/30 14:28:42;;;;;;;12.60;7.88;;;;;;;20.31;100.00;99781.53;5073335;28;20051;-60
2023/06/30 14:31:08;;;;;;;14.18;8.38;;;;;;;20.33;100.00;99776.69;5073481;28;20043;-61
2023/06/30 14:33:35;;;;;;;12.50;7.80;;;;;;;20.32;100.00;99783.16;5073551;28;20042;-58
2023/06/30 14:36:02;;;;;;;13.18;7.72;;;;;;;20.68;100.00;99778.28;5073513;28;20047;-60
2023/06/30 14:38:28;;;;;;;14.90;8.32;;;;;;;20.90;100.00;99777.47;5073087;28;20043;-60
2023/06/30 14:40:53;;;;;;;12.30;7.85;;;;;;;21.14;100.00;99773.44;5072127;28;20033;-57
2023/06/30 14:43:19;;;;;;;13.27;7.85;;;;;;;21.35;100.00;99767.19;5073547;28;20078;-61
2023/06/30 14:45:44;;;;;;;13.93;8.13;;;;;;;21.42;99.70;99760.75;5073342;28;20407;-59
2023/06/30 14:48:09;;;;;;;14.45;8.35;;;;;;;21.52;97.89;99766.28;5073206;28;20090;-60
2023/06/30 14:50:36;;;;;;;14.52;8.60;;;;;;;21.47;98.21;99758.09;5072887;28;20040;-59
2023/06/30 14:53:01;;;;;;;13.63;7.90;;;;;;;21.43;96.43;99759.66;5073246;28;20543;-59
2023/06/30 14:55:27;;;;;;;15.13;8.00;;;;;;;21.19;100.00;99762.66;5073229;28;20045;-61
2023/06/30 14:57:52;;;;;;;12.18;7.95;;;;;;;21.40;100.00;99761.81;5073131;28;20029;-60
2023/06/30 15:00:18;;;;;;;15.07;8.27;;;;;;;21.54;100.00;99758.69;5072790;28;20576;-60
2023/06/30 15:02:44;;;;;;;11.63;7.72;;;;;;;21.43;99.20;99759.66;5072925;28;20383;-59
2023/06/30 15:05:09;;;;;;;14.00;8.43;;;;;;;21.68;99.24;99754.50;5070793;28;20048;-60
2023/06/30 15:07:35;;;;;;;14.07;7.60;;;;;;;21.40;94.22;99753.69;5072886;28;20131;-60
2023/06/30 15:10:00;;;;;;;12.23;7.50;;;;;;;21.42;97.04;99752.63;5072650;28;20107;-59
2023/06/30 15:12:26;;;;;;;11.25;7.78;;;;;;;21.48;98.24;99748.88;5072848;28;20068;-59
2023/06/30 15:14:51;;;;;;;15.18;8.15;;;;;;;21.31;98.89;99752.50;5072980;28;20044;-59
2023/06/30 15:17:17;;;;;;;12.10;7.63;;;;;;;21.36;95.82;99751.75;5072703;28;20398;-61
2023/06/30 15:19:42;;;;;;;12.82;7.72;;;;;;;21.49;97.51;99753.22;5071199;28;20044;-61
2023/06/30 15:22:08;;;;;;;11.48;7.07;;;;;;;21.47;96.70;99753.50;5072552;28;20032;-59
2023/06/30 15:24:36;;;;;;;13.80;7.80;;;;;;;21.47;96.86;99747.25;5072862;28;20040;-60
2023/06/30 15:27:02;;;;;;;12.77;7.93;;;;;;;21.23;95.71;99746.72;5071399;28;20083;-60
2023/06/30 15:29:28;;;;;;;12.18;7.72;;;;;;;21.39;98.83;99749.38;5072256;28;20139;-60
2023/06/30 15:31:53;;;;;;;11.88;7.10;;;;;;;21.47;100.00;99747.25;5072345;28;20036;-60
2023/06/30 15:34:19;;;;;;;12.00;6.63;;;;;;;21.42;98.60;99747.19;5072315;28;20472;-61
2023/06/30 15:36:44;;;;;;;10.90;7.60;;;;;;;21.49;99.83;99748.63;5072355;28;20048;-60
2023/06/30 15:39:10;;;;;;;12.57;7.20;;;;;;;21.19;98.88;99756.41;5072031;28;20032;-61
2023/06/30 15:41:35;;;;;;;14.90;7.90;;;;;;;21.14;100.00;99743.66;5066877;28;20504;-62